This is the latest recevied weather packets stored in our database for station/object EA1HEH-13. If no packets are shown the sender has not sent any weather packets the latest 10 day(s).
| Time | Temp. | Humidity | Pressure | Rain* | Wind** | Luminosity | Snow |
|---|---|---|---|---|---|---|---|
| 1777902942 | 17.78° C | 44% | 932.4 hPa | - | - | - | - |
| 1777901142 | 16.67° C | 46% | 932.6 hPa | - | - | - | - |
| 1777900542 | 17.22° C | 46% | 932.7 hPa | - | - | - | - |
| 1777899942 | 17.22° C | 43% | 932.7 hPa | - | - | - | - |
| 1777899342 | 17.22° C | 43% | 932.7 hPa | - | - | - | - |
| 1777898142 | 16.67° C | 43% | 932.8 hPa | - | - | - | - |
| 1777897542 | 16.67° C | 44% | 933 hPa | - | - | - | - |
| 1777896942 | 16.67° C | 45% | 932.8 hPa | - | - | - | - |
| 1777896342 | 16.67° C | 46% | 932.9 hPa | - | - | - | - |
| 1777895742 | 16.11° C | 46% | 933 hPa | - | - | - | - |
| 1777895142 | 16.11° C | 46% | 933.1 hPa | - | - | - | - |
| 1777894542 | 16.67° C | 45% | 933.1 hPa | - | - | - | - |
| 1777893942 | 16.67° C | 45% | 933 hPa | - | - | - | - |
| 1777893342 | 16.67° C | 46% | 932.9 hPa | - | - | - | - |
| 1777892742 | 16.11° C | 46% | 933 hPa | - | - | - | - |
| 1777892142 | 16.11° C | 43% | 933.1 hPa | - | - | - | - |
| 1777891542 | 17.22° C | 39% | 933.3 hPa | - | - | - | - |
| 1777890342 | 17.22° C | 40% | 933.1 hPa | - | - | - | - |
| 1777889742 | 17.22° C | 39% | 933.1 hPa | - | - | - | - |
| 1777889142 | 17.22° C | 39% | 933.1 hPa | - | - | - | - |
| 1777888542 | 17.22° C | 39% | 933.1 hPa | - | - | - | - |
| 1777887942 | 16.67° C | 40% | 933.1 hPa | - | - | - | - |
| 1777887342 | 16.67° C | 40% | 933.1 hPa | - | - | - | - |
| 1777886742 | 16.11° C | 39% | 933.2 hPa | - | - | - | - |
| 1777886142 | 16.11° C | 39% | 933.2 hPa | - | - | - | - |
* Rain since midnight (hover to see other rain measurements)
** Current wind speed in m/s (hover to see current wind gust speed)